Time,TemperatureF,DewpointF,PressureIn,WindDirection,WindDirectionDegrees,WindSpeedMPH,WindSpeedGustMPH,Humidity,HourlyPrecipIn,Conditions,Clouds,dailyrainin,SoftwareType,DateUTC
2013-06-19 00:05:00,63.4,54.2,30.03,North,360,0.0,1.0,72,0.00,,,0.00,Wunderground v.1.15,2013-06-19 05:05:00,
2013-06-19 00:15:00,63.1,53.9,30.03,North,360,0.0,2.0,72,0.00,,,0.00,Wunderground v.1.15,2013-06-19 05:15:00,
2013-06-19 00:20:00,63.0,54.2,30.03,North,360,0.0,0.0,73,0.00,,,0.00,Wunderground v.1.15,2013-06-19 05:20:00,
2013-06-19 00:30:00,62.7,54.3,30.03,North,360,1.0,1.0,74,0.00,,,0.00,Wunderground v.1.15,2013-06-19 05:30:00,
2013-06-19 00:35:00,62.5,54.1,30.03,North,11,1.0,1.0,74,0.00,,,0.00,Wunderground v.1.15,2013-06-19 05:35:00,
2013-06-19 00:45:00,62.2,53.8,30.03,North,11,2.0,5.0,74,0.00,,,0.00,Wunderground v.1.15,2013-06-19 05:45:00,
2013-06-19 00:50:00,62.1,53.7,30.03,North,5,2.0,2.0,74,0.00,,,0.00,Wunderground v.1.15,2013-06-19 05:50:00,
2013-06-19 01:00:00,61.8,53.4,30.04,NNW,342,3.0,3.0,74,0.00,,,0.00,Wunderground v.1.15,2013-06-19 06:00:00,
2013-06-19 01:10:00,61.6,53.2,30.04,North,360,1.0,3.0,74,0.00,,,0.00,Wunderground v.1.15,2013-06-19 06:10:00,
2013-06-19 01:15:00,61.4,53.0,30.04,North,5,1.0,3.0,74,0.00,,,0.00,Wunderground v.1.15,2013-06-19 06:15:00,
2013-06-19 01:25:00,61.2,52.8,30.03,North,5,2.0,6.0,74,0.00,,,0.00,Wunderground v.1.15,2013-06-19 06:25:00,
2013-06-19 01:30:00,61.1,53.1,30.03,North,360,1.0,2.0,75,0.00,,,0.00,Wunderground v.1.15,2013-06-19 06:30:00,
2013-06-19 01:40:00,60.8,52.8,30.03,NNW,342,0.0,0.0,75,0.00,,,0.00,Wunderground v.1.15,2013-06-19 06:40:00,
2013-06-19 01:50:00,60.5,52.9,30.04,NNE,22,0.0,2.0,76,0.00,,,0.00,Wunderground v.1.15,2013-06-19 06:50:00,
2013-06-19 01:55:00,60.4,52.8,30.04,North,5,2.0,2.0,76,0.00,,,0.00,Wunderground v.1.15,2013-06-19 06:55:00,
2013-06-19 02:05:00,60.1,52.5,30.04,NNE,15,2.0,3.0,76,0.00,,,0.00,Wunderground v.1.15,2013-06-19 07:05:00,
2013-06-19 02:15:00,59.9,52.7,30.03,North,360,2.0,3.0,77,0.00,,,0.00,Wunderground v.1.15,2013-06-19 07:15:00,
2013-06-19 02:20:00,59.8,52.6,30.03,North,360,1.0,1.0,77,0.00,,,0.00,Wunderground v.1.15,2013-06-19 07:20:00,
2013-06-19 02:30:00,59.6,52.4,30.03,North,360,0.0,0.0,77,0.00,,,0.00,Wunderground v.1.15,2013-06-19 07:30:00,
2013-06-19 02:35:00,59.5,52.6,30.03,North,5,0.0,0.0,78,0.00,,,0.00,Wunderground v.1.15,2013-06-19 07:35:00,
2013-06-19 02:45:00,59.3,52.4,30.03,North,9,0.0,0.0,78,0.00,,,0.00,Wunderground v.1.15,2013-06-19 07:45:00,
2013-06-19 02:55:00,59.1,52.6,30.03,North,5,0.0,0.0,79,0.00,,,0.00,Wunderground v.1.15,2013-06-19 07:55:00,
2013-06-19 03:00:00,59.0,52.5,30.03,North,5,0.0,0.0,79,0.00,,,0.00,Wunderground v.1.15,2013-06-19 08:00:00,
2013-06-19 03:10:00,58.8,52.6,30.03,North,9,0.0,0.0,80,0.00,,,0.00,Wunderground v.1.15,2013-06-19 08:10:00,
2013-06-19 03:20:00,58.6,52.4,30.03,North,5,0.0,0.0,80,0.00,,,0.00,Wunderground v.1.15,2013-06-19 08:20:00,
2013-06-19 03:25:00,58.5,52.7,30.03,North,5,0.0,0.0,81,0.00,,,0.00,Wunderground v.1.15,2013-06-19 08:25:00,
2013-06-19 03:35:00,58.4,52.6,30.04,North,5,0.0,0.0,81,0.00,,,0.00,Wunderground v.1.15,2013-06-19 08:35:00,
2013-06-19 03:45:00,58.3,52.8,30.04,North,360,0.0,0.0,82,0.00,,,0.00,Wunderground v.1.15,2013-06-19 08:45:00,
2013-06-19 03:55:00,58.2,52.7,30.05,North,360,0.0,0.0,82,0.00,,,0.00,Wunderground v.1.15,2013-06-19 08:55:00,
2013-06-19 04:00:00,58.2,53.1,30.05,North,360,0.0,0.0,83,0.00,,,0.00,Wunderground v.1.15,2013-06-19 09:00:00,
2013-06-19 04:10:00,58.2,53.1,30.05,North,5,0.0,0.0,83,0.00,,,0.00,Wunderground v.1.15,2013-06-19 09:10:00,
2013-06-19 04:15:00,58.2,53.1,30.05,North,5,0.0,0.0,83,0.00,,,0.00,Wunderground v.1.15,2013-06-19 09:15:00,
2013-06-19 04:25:00,58.1,53.0,30.05,North,5,0.0,0.0,83,0.00,,,0.00,Wunderground v.1.15,2013-06-19 09:25:00,
2013-06-19 04:30:00,58.1,53.0,30.05,North,5,0.0,0.0,83,0.00,,,0.00,Wunderground v.1.15,2013-06-19 09:30:00,
2013-06-19 04:40:00,58.0,53.2,30.06,North,5,0.0,0.0,84,0.00,,,0.00,Wunderground v.1.15,2013-06-19 09:40:00,
2013-06-19 04:50:00,57.9,53.1,30.06,North,5,0.0,0.0,84,0.00,,,0.00,Wunderground v.1.15,2013-06-19 09:50:00,
2013-06-19 04:55:00,57.9,53.1,30.06,North,5,0.0,0.0,84,0.00,,,0.00,Wunderground v.1.15,2013-06-19 09:55:00,
2013-06-19 05:05:00,57.8,53.3,30.07,North,5,0.0,0.0,85,0.00,,,0.00,Wunderground v.1.15,2013-06-19 10:05:00,
2013-06-19 05:15:00,57.8,53.3,30.07,North,360,0.0,0.0,85,0.00,,,0.00,Wunderground v.1.15,2013-06-19 10:15:00,
2013-06-19 05:20:00,57.8,53.3,30.06,North,360,0.0,0.0,85,0.00,,,0.00,Wunderground v.1.15,2013-06-19 10:20:00,
2013-06-19 05:30:00,57.8,53.3,30.07,North,360,0.0,0.0,85,0.00,,,0.00,Wunderground v.1.15,2013-06-19 10:30:00,
2013-06-19 05:40:00,57.8,53.6,30.07,North,360,0.0,0.0,86,0.00,,,0.00,Wunderground v.1.15,2013-06-19 10:40:00,
2013-06-19 05:45:00,57.9,53.7,30.07,North,360,0.0,0.0,86,0.00,,,0.00,Wunderground v.1.15,2013-06-19 10:45:00,
2013-06-19 05:55:00,58.2,54.3,30.07,North,5,0.0,0.0,87,0.00,,,0.00,Wunderground v.1.15,2013-06-19 10:55:00,
2013-06-19 06:00:00,58.5,55.0,30.07,NNE,15,0.0,0.0,88,0.00,,,0.00,Wunderground v.1.15,2013-06-19 11:00:00,
2013-06-19 06:10:00,59.1,55.5,30.07,NE,56,0.0,4.0,88,0.00,,,0.00,Wunderground v.1.15,2013-06-19 11:10:00,
2013-06-19 06:15:00,59.4,55.8,30.07,ENE,59,0.0,4.0,88,0.00,,,0.00,Wunderground v.1.15,2013-06-19 11:15:00,
2013-06-19 06:25:00,60.0,56.4,30.08,NE,55,1.0,1.0,88,0.00,,,0.00,Wunderground v.1.15,2013-06-19 11:25:00,
2013-06-19 06:35:00,60.6,57.0,30.08,ENE,67,1.0,1.0,88,0.00,,,0.00,Wunderground v.1.15,2013-06-19 11:35:00,
2013-06-19 06:40:00,60.9,57.0,30.09,ENE,64,1.0,1.0,87,0.00,,,0.00,Wunderground v.1.15,2013-06-19 11:40:00,
2013-06-19 06:50:00,61.6,57.4,30.09,ENE,72,1.0,4.0,86,0.00,,,0.00,Wunderground v.1.15,2013-06-19 11:50:00,
2013-06-19 07:00:00,62.3,57.7,30.09,ENE,68,2.0,3.0,85,0.00,,,0.00,Wunderground v.1.15,2013-06-19 12:00:00,
2013-06-19 07:05:00,62.7,58.1,30.10,NE,46,3.0,3.0,85,0.00,,,0.00,Wunderground v.1.15,2013-06-19 12:05:00,
2013-06-19 07:15:00,63.8,58.9,30.10,ENE,61,2.0,4.0,84,0.00,,,0.00,Wunderground v.1.15,2013-06-19 12:15:00,
2013-06-19 07:20:00,64.5,59.2,30.10,ENE,60,1.0,1.0,83,0.00,,,0.00,Wunderground v.1.15,2013-06-19 12:20:00,
2013-06-19 07:30:00,66.0,59.3,30.10,NE,56,2.0,2.0,79,0.00,,,0.00,Wunderground v.1.15,2013-06-19 12:30:00,
2013-06-19 07:35:00,66.8,59.7,30.10,NE,36,2.0,2.0,78,0.00,,,0.00,Wunderground v.1.15,2013-06-19 12:35:00,
2013-06-19 07:40:00,67.7,60.2,30.10,NE,38,1.0,3.0,77,0.00,,,0.00,Wunderground v.1.15,2013-06-19 12:40:00,
2013-06-19 07:50:00,69.1,60.1,30.11,ENE,58,3.0,3.0,73,0.00,,,0.00,Wunderground v.1.15,2013-06-19 12:50:00,
2013-06-19 07:55:00,69.8,60.4,30.11,ENE,60,2.0,3.0,72,0.00,,,0.00,Wunderground v.1.15,2013-06-19 12:55:00,
2013-06-19 08:05:00,71.1,60.4,30.11,NE,42,3.0,6.0,69,0.00,,,0.00,Wunderground v.1.15,2013-06-19 13:05:00,
2013-06-19 08:10:00,71.7,60.2,30.10,ENE,65,3.0,3.0,67,0.00,,,0.00,Wunderground v.1.15,2013-06-19 13:10:00,
2013-06-19 08:20:00,73.0,60.5,30.10,NE,55,3.0,4.0,65,0.00,,,0.00,Wunderground v.1.15,2013-06-19 13:20:00,
2013-06-19 08:30:00,73.9,61.0,30.11,NE,45,4.0,4.0,64,0.00,,,0.00,Wunderground v.1.15,2013-06-19 13:30:00,
2013-06-19 08:35:00,74.3,60.4,30.11,East,93,3.0,5.0,62,0.00,,,0.00,Wunderground v.1.15,2013-06-19 13:35:00,
2013-06-19 08:40:00,74.7,60.8,30.11,ESE,105,2.0,2.0,62,0.00,,,0.00,Wunderground v.1.15,2013-06-19 13:40:00,
2013-06-19 08:50:00,75.2,61.3,30.11,ENE,58,3.0,3.0,62,0.00,,,0.00,Wunderground v.1.15,2013-06-19 13:50:00,
2013-06-19 09:00:00,75.8,60.9,30.11,SE,136,3.0,3.0,60,0.00,,,0.00,Wunderground v.1.15,2013-06-19 14:00:00,
2013-06-19 09:05:00,76.3,60.9,30.11,NE,53,3.0,3.0,59,0.00,,,0.00,Wunderground v.1.15,2013-06-19 14:05:00,
2013-06-19 09:15:00,77.1,61.2,30.11,SE,141,3.0,3.0,58,0.00,,,0.00,Wunderground v.1.15,2013-06-19 14:15:00,
2013-06-19 09:20:00,77.3,60.4,30.11,ESE,115,3.0,3.0,56,0.00,,,0.00,Wunderground v.1.15,2013-06-19 14:20:00,
2013-06-19 09:30:00,77.8,60.8,30.11,ESE,119,2.0,3.0,56,0.00,,,0.00,Wunderground v.1.15,2013-06-19 14:30:00,
2013-06-19 09:35:00,78.4,61.4,30.11,East,98,2.0,3.0,56,0.00,,,0.00,Wunderground v.1.15,2013-06-19 14:35:00,
2013-06-19 09:45:00,79.4,62.3,30.11,ESE,110,2.0,3.0,56,0.00,,,0.00,Wunderground v.1.15,2013-06-19 14:45:00,
2013-06-19 09:55:00,80.0,61.3,30.11,SSE,156,2.0,3.0,53,0.00,,,0.00,Wunderground v.1.15,2013-06-19 14:55:00,
2013-06-19 10:00:00,80.3,62.7,30.11,SE,144,2.0,2.0,55,0.00,,,0.00,Wunderground v.1.15,2013-06-19 15:00:00,
2013-06-19 10:05:00,80.5,63.4,30.11,ESE,117,2.0,2.0,56,0.00,,,0.00,Wunderground v.1.15,2013-06-19 15:05:00,
2013-06-19 10:15:00,81.3,63.1,30.11,East,94,1.0,1.0,54,0.00,,,0.00,Wunderground v.1.15,2013-06-19 15:15:00,
2013-06-19 10:25:00,82.2,62.3,30.11,ENE,75,1.0,4.0,51,0.00,,,0.00,Wunderground v.1.15,2013-06-19 15:25:00,
2013-06-19 10:30:00,82.6,64.3,30.11,ENE,65,1.0,1.0,54,0.00,,,0.00,Wunderground v.1.15,2013-06-19 15:30:00,
2013-06-19 10:40:00,83.0,61.9,30.11,ESE,115,1.0,1.0,49,0.00,,,0.00,Wunderground v.1.15,2013-06-19 15:40:00,
2013-06-19 10:45:00,83.3,61.6,30.11,SE,128,2.0,2.0,48,0.00,,,0.00,Wunderground v.1.15,2013-06-19 15:45:00,
2013-06-19 10:55:00,83.8,64.3,30.11,ENE,66,1.0,1.0,52,0.00,,,0.00,Wunderground v.1.15,2013-06-19 15:55:00,
2013-06-19 11:00:00,84.1,63.5,30.11,SE,129,2.0,2.0,50,0.00,,,0.00,Wunderground v.1.15,2013-06-19 16:00:00,
2013-06-19 11:10:00,84.7,61.6,30.11,SE,127,1.0,1.0,46,0.00,,,0.00,Wunderground v.1.15,2013-06-19 16:10:00,
2013-06-19 11:20:00,84.9,65.9,30.11,ENE,71,2.0,2.0,53,0.00,,,0.00,Wunderground v.1.15,2013-06-19 16:20:00,
2013-06-19 11:25:00,85.2,62.1,30.11,ENE,71,2.0,2.0,46,0.00,,,0.00,Wunderground v.1.15,2013-06-19 16:25:00,
2013-06-19 11:35:00,85.5,65.3,30.11,ENE,58,1.0,2.0,51,0.00,,,0.00,Wunderground v.1.15,2013-06-19 16:35:00,
2013-06-19 11:40:00,85.4,62.9,30.11,NE,51,2.0,2.0,47,0.00,,,0.00,Wunderground v.1.15,2013-06-19 16:40:00,
2013-06-19 11:45:00,85.1,66.0,30.10,NE,52,2.0,3.0,53,0.00,,,0.00,Wunderground v.1.15,2013-06-19 16:45:00,
2013-06-19 11:55:00,85.0,65.4,30.11,ENE,57,1.0,2.0,52,0.00,,,0.00,Wunderground v.1.15,2013-06-19 16:55:00,
2013-06-19 12:00:00,85.1,62.0,30.10,ENE,63,1.0,1.0,46,0.00,,,0.00,Wunderground v.1.15,2013-06-19 17:00:00,
2013-06-19 12:10:00,85.5,63.6,30.10,ENE,65,1.0,2.0,48,0.00,,,0.00,Wunderground v.1.15,2013-06-19 17:10:00,
2013-06-19 12:20:00,85.9,62.7,30.10,NNE,29,1.0,1.0,46,0.00,,,0.00,Wunderground v.1.15,2013-06-19 17:20:00,
2013-06-19 12:25:00,85.8,63.8,30.10,NE,39,2.0,2.0,48,0.00,,,0.00,Wunderground v.1.15,2013-06-19 17:25:00,
2013-06-19 12:35:00,86.0,65.2,30.09,East,92,1.0,2.0,50,0.00,,,0.00,Wunderground v.1.15,2013-06-19 17:35:00,
2013-06-19 12:40:00,86.0,60.9,30.09,ENE,59,2.0,2.0,43,0.00,,,0.00,Wunderground v.1.15,2013-06-19 17:40:00,
2013-06-19 12:50:00,86.3,62.5,30.09,ENE,77,1.0,1.0,45,0.00,,,0.00,Wunderground v.1.15,2013-06-19 17:50:00,
2013-06-19 13:00:00,85.7,60.0,30.08,ENE,77,0.0,0.0,42,0.00,,,0.00,Wunderground v.1.15,2013-06-19 18:00:00,
2013-06-19 13:05:00,85.4,60.4,30.08,ENE,71,1.0,2.0,43,0.00,,,0.00,Wunderground v.1.15,2013-06-19 18:05:00,
2013-06-19 13:15:00,84.2,60.6,30.08,ENE,64,1.0,4.0,45,0.00,,,0.00,Wunderground v.1.15,2013-06-19 18:15:00,
2013-06-19 13:20:00,84.1,61.1,30.08,ENE,59,1.0,1.0,46,0.00,,,0.00,Wunderground v.1.15,2013-06-19 18:20:00,
2013-06-19 13:30:00,84.4,62.6,30.08,East,80,1.0,1.0,48,0.00,,,0.00,Wunderground v.1.15,2013-06-19 18:30:00,
2013-06-19 13:35:00,84.0,62.2,30.08,East,80,1.0,1.0,48,0.00,,,0.00,Wunderground v.1.15,2013-06-19 18:35:00,
2013-06-19 13:45:00,83.5,64.6,30.08,ENE,67,1.0,3.0,53,0.00,,,0.00,Wunderground v.1.15,2013-06-19 18:45:00,
2013-06-19 13:55:00,84.8,61.1,30.07,ENE,70,1.0,1.0,45,0.00,,,0.00,Wunderground v.1.15,2013-06-19 18:55:00,
2013-06-19 14:00:00,85.0,61.3,30.07,ENE,71,1.0,1.0,45,0.00,,,0.00,Wunderground v.1.15,2013-06-19 19:00:00,
2013-06-19 14:10:00,85.7,61.9,30.08,NE,46,2.0,2.0,45,0.00,,,0.00,Wunderground v.1.15,2013-06-19 19:10:00,
2013-06-19 14:15:00,86.0,62.2,30.08,ENE,69,2.0,2.0,45,0.00,,,0.00,Wunderground v.1.15,2013-06-19 19:15:00,
2013-06-19 14:25:00,85.9,61.5,30.07,ENE,61,0.0,3.0,44,0.00,,,0.00,Wunderground v.1.15,2013-06-19 19:25:00,
2013-06-19 14:35:00,85.7,62.5,30.07,ENE,72,1.0,1.0,46,0.00,,,0.00,Wunderground v.1.15,2013-06-19 19:35:00,
2013-06-19 14:40:00,86.1,64.1,30.07,ESE,109,1.0,2.0,48,0.00,,,0.00,Wunderground v.1.15,2013-06-19 19:40:00,
2013-06-19 14:45:00,86.3,64.3,30.07,ENE,63,2.0,3.0,48,0.00,,,0.00,Wunderground v.1.15,2013-06-19 19:45:00,
2013-06-19 14:55:00,86.0,58.2,30.06,ENE,71,3.0,3.0,39,0.00,,,0.00,Wunderground v.1.15,2013-06-19 19:55:00,
2013-06-19 15:05:00,84.8,59.2,30.06,NE,54,1.0,3.0,42,0.00,,,0.00,Wunderground v.1.15,2013-06-19 20:05:00,
2013-06-19 15:10:00,84.3,58.7,30.06,ENE,76,1.0,1.0,42,0.00,,,0.00,Wunderground v.1.15,2013-06-19 20:10:00,
2013-06-19 15:20:00,83.9,58.3,30.05,SSE,153,2.0,2.0,42,0.00,,,0.00,Wunderground v.1.15,2013-06-19 20:20:00,
2013-06-19 15:25:00,84.0,59.7,30.05,SSE,150,1.0,2.0,44,0.00,,,0.00,Wunderground v.1.15,2013-06-19 20:25:00,
2013-06-19 15:35:00,84.5,60.8,30.05,SSW,195,2.0,3.0,45,0.00,,,0.00,Wunderground v.1.15,2013-06-19 20:35:00,
2013-06-19 15:45:00,85.0,61.9,30.05,SSW,196,2.0,3.0,46,0.00,,,0.00,Wunderground v.1.15,2013-06-19 20:45:00,
2013-06-19 15:50:00,84.8,60.5,30.05,South,181,1.0,1.0,44,0.00,,,0.00,Wunderground v.1.15,2013-06-19 20:50:00,
2013-06-19 16:00:00,84.2,58.6,30.05,SW,224,3.0,3.0,42,0.00,,,0.00,Wunderground v.1.15,2013-06-19 21:00:00,
2013-06-19 16:05:00,84.2,59.3,30.05,WSW,257,3.0,4.0,43,0.00,,,0.00,Wunderground v.1.15,2013-06-19 21:05:00,
2013-06-19 16:15:00,84.3,57.3,30.05,WSW,256,1.0,2.0,40,0.00,,,0.00,Wunderground v.1.15,2013-06-19 21:15:00,
2013-06-19 16:25:00,84.0,58.4,30.05,SSW,197,1.0,2.0,42,0.00,,,0.00,Wunderground v.1.15,2013-06-19 21:25:00,
2013-06-19 16:30:00,83.6,58.7,30.05,SSW,194,0.0,0.0,43,0.00,,,0.00,Wunderground v.1.15,2013-06-19 21:30:00,
2013-06-19 16:40:00,83.3,59.7,30.05,South,173,1.0,5.0,45,0.00,,,0.00,Wunderground v.1.15,2013-06-19 21:40:00,
2013-06-19 16:45:00,83.4,61.1,30.05,SE,136,3.0,5.0,47,0.00,,,0.00,Wunderground v.1.15,2013-06-19 21:45:00,
2013-06-19 16:55:00,83.1,58.3,30.05,SE,142,2.0,3.0,43,0.00,,,0.00,Wunderground v.1.15,2013-06-19 21:55:00,
2013-06-19 17:00:00,82.9,58.7,30.05,SSE,157,1.0,1.0,44,0.00,,,0.00,Wunderground v.1.15,2013-06-19 22:00:00,
2013-06-19 17:10:00,82.7,59.2,30.05,SSW,202,3.0,3.0,45,0.00,,,0.00,Wunderground v.1.15,2013-06-19 22:10:00,
2013-06-19 17:20:00,82.8,58.0,30.05,SSW,205,2.0,4.0,43,0.00,,,0.00,Wunderground v.1.15,2013-06-19 22:20:00,
2013-06-19 17:25:00,83.0,60.7,30.05,ESE,121,3.0,4.0,47,0.00,,,0.00,Wunderground v.1.15,2013-06-19 22:25:00,
2013-06-19 17:35:00,83.2,58.4,30.05,South,170,2.0,4.0,43,0.00,,,0.00,Wunderground v.1.15,2013-06-19 22:35:00,
2013-06-19 17:40:00,83.4,58.6,30.05,South,173,2.0,5.0,43,0.00,,,0.00,Wunderground v.1.15,2013-06-19 22:40:00,
2013-06-19 17:50:00,83.5,58.0,30.05,SSW,196,3.0,6.0,42,0.00,,,0.00,Wunderground v.1.15,2013-06-19 22:50:00,
2013-06-19 18:00:00,83.3,58.5,30.05,SSE,159,3.0,5.0,43,0.00,,,0.00,Wunderground v.1.15,2013-06-19 23:00:00,
2013-06-19 18:05:00,83.1,58.3,30.05,SSE,158,3.0,5.0,43,0.00,,,0.00,Wunderground v.1.15,2013-06-19 23:05:00,
2013-06-19 18:10:00,82.9,59.4,30.05,South,180,4.0,4.0,45,0.00,,,0.00,Wunderground v.1.15,2013-06-19 23:10:00,
2013-06-19 18:20:00,82.5,59.6,30.05,SSE,150,1.0,1.0,46,0.00,,,0.00,Wunderground v.1.15,2013-06-19 23:20:00,
2013-06-19 18:30:00,81.8,59.0,30.06,SSE,155,2.0,2.0,46,0.00,,,0.00,Wunderground v.1.15,2013-06-19 23:30:00,
2013-06-19 18:35:00,81.5,59.3,30.06,SE,134,2.0,2.0,47,0.00,,,0.00,Wunderground v.1.15,2013-06-19 23:35:00,
2013-06-19 18:45:00,81.0,58.9,30.06,SSE,163,2.0,3.0,47,0.00,,,0.00,Wunderground v.1.15,2013-06-19 23:45:00,
2013-06-19 18:50:00,81.0,59.5,30.06,SSE,153,3.0,4.0,48,0.00,,,0.00,Wunderground v.1.15,2013-06-19 23:50:00,
2013-06-19 19:00:00,81.1,60.1,30.06,SSE,155,2.0,4.0,49,0.00,,,0.00,Wunderground v.1.15,2013-06-20 00:00:00,
2013-06-19 19:10:00,81.1,60.1,30.06,South,188,2.0,2.0,49,0.00,,,0.00,Wunderground v.1.15,2013-06-20 00:10:00,
2013-06-19 19:15:00,81.0,60.0,30.06,SSW,195,1.0,2.0,49,0.00,,,0.00,Wunderground v.1.15,2013-06-20 00:15:00,
2013-06-19 19:25:00,80.7,60.3,30.06,SSW,195,0.0,1.0,50,0.00,,,0.00,Wunderground v.1.15,2013-06-20 00:25:00,
2013-06-19 19:30:00,80.5,60.1,30.06,SSW,195,0.0,0.0,50,0.00,,,0.00,Wunderground v.1.15,2013-06-20 00:30:00,
2013-06-19 19:40:00,80.0,60.2,30.06,SSW,195,0.0,0.0,51,0.00,,,0.00,Wunderground v.1.15,2013-06-20 00:40:00,
2013-06-19 19:45:00,79.7,60.0,30.06,SSW,195,0.0,0.0,51,0.00,,,0.00,Wunderground v.1.15,2013-06-20 00:45:00,
2013-06-19 19:55:00,79.2,60.6,30.06,SSW,195,0.0,0.0,53,0.00,,,0.00,Wunderground v.1.15,2013-06-20 00:55:00,
2013-06-19 20:00:00,78.9,60.8,30.06,SSW,195,0.0,0.0,54,0.00,,,0.00,Wunderground v.1.15,2013-06-20 01:00:00,
2013-06-19 20:10:00,78.2,61.2,30.06,SSW,195,0.0,0.0,56,0.00,,,0.00,Wunderground v.1.15,2013-06-20 01:10:00,
2013-06-19 20:20:00,77.5,61.1,30.06,SSW,195,0.0,0.0,57,0.00,,,0.00,Wunderground v.1.15,2013-06-20 01:20:00,
2013-06-19 20:25:00,77.1,60.7,30.07,SSW,195,0.0,0.0,57,0.00,,,0.00,Wunderground v.1.15,2013-06-20 01:25:00,
2013-06-19 20:35:00,76.4,61.0,30.07,SSW,192,0.0,0.0,59,0.00,,,0.00,Wunderground v.1.15,2013-06-20 01:35:00,
2013-06-19 20:40:00,76.0,60.6,30.06,SSW,192,0.0,0.0,59,0.00,,,0.00,Wunderground v.1.15,2013-06-20 01:40:00,
2013-06-19 20:45:00,75.7,60.4,30.06,South,187,0.0,0.0,59,0.00,,,0.00,Wunderground v.1.15,2013-06-20 01:45:00,
2013-06-19 20:55:00,75.3,60.9,30.07,South,186,0.0,0.0,61,0.00,,,0.00,Wunderground v.1.15,2013-06-20 01:55:00,
2013-06-19 21:00:00,75.1,61.2,30.07,South,186,0.0,0.0,62,0.00,,,0.00,Wunderground v.1.15,2013-06-20 02:00:00,
2013-06-19 21:10:00,74.6,61.2,30.07,South,186,0.0,0.0,63,0.00,,,0.00,Wunderground v.1.15,2013-06-20 02:10:00,
2013-06-19 21:15:00,74.4,61.4,30.07,South,184,0.0,0.0,64,0.00,,,0.00,Wunderground v.1.15,2013-06-20 02:15:00,
2013-06-19 21:25:00,73.8,61.3,30.08,SE,144,0.0,0.0,65,0.00,,,0.00,Wunderground v.1.15,2013-06-20 02:25:00,
2013-06-19 21:35:00,73.4,61.3,30.08,SE,140,0.0,0.0,66,0.00,,,0.00,Wunderground v.1.15,2013-06-20 02:35:00,
2013-06-19 21:40:00,73.3,61.3,30.09,SE,135,0.0,0.0,66,0.00,,,0.00,Wunderground v.1.15,2013-06-20 02:40:00,
2013-06-19 21:50:00,73.2,61.2,30.09,SE,126,0.0,0.0,66,0.00,,,0.00,Wunderground v.1.15,2013-06-20 02:50:00,
2013-06-19 21:55:00,73.3,60.8,30.09,ESE,117,0.0,0.0,65,0.00,,,0.00,Wunderground v.1.15,2013-06-20 02:55:00,
2013-06-19 22:05:00,73.3,60.4,30.09,ESE,113,0.0,0.0,64,0.00,,,0.00,Wunderground v.1.15,2013-06-20 03:05:00,
2013-06-19 22:10:00,73.3,59.9,30.09,ESE,112,0.0,0.0,63,0.00,,,0.00,Wunderground v.1.15,2013-06-20 03:10:00,
2013-06-19 22:20:00,73.1,60.2,30.10,ESE,112,0.0,0.0,64,0.00,,,0.00,Wunderground v.1.15,2013-06-20 03:20:00,
2013-06-19 22:30:00,73.0,59.7,30.10,ESE,107,0.0,0.0,63,0.00,,,0.00,Wunderground v.1.15,2013-06-20 03:30:00,
2013-06-19 22:35:00,72.9,60.0,30.10,ESE,107,0.0,0.0,64,0.00,,,0.00,Wunderground v.1.15,2013-06-20 03:35:00,
2013-06-19 22:45:00,72.7,59.8,30.10,ESE,107,0.0,0.0,64,0.00,,,0.00,Wunderground v.1.15,2013-06-20 03:45:00,
2013-06-19 22:55:00,72.6,59.3,30.11,East,101,1.0,1.0,63,0.00,,,0.00,Wunderground v.1.15,2013-06-20 03:55:00,
2013-06-19 23:05:00,72.5,58.7,30.11,East,90,1.0,1.0,62,0.00,,,0.00,Wunderground v.1.15,2013-06-20 04:05:00,
2013-06-19 23:10:00,72.4,58.6,30.11,East,86,1.0,1.0,62,0.00,,,0.00,Wunderground v.1.15,2013-06-20 04:10:00,
2013-06-19 23:15:00,72.3,58.5,30.11,East,86,0.0,1.0,62,0.00,,,0.00,Wunderground v.1.15,2013-06-20 04:15:00,
2013-06-19 23:20:00,72.2,58.9,30.11,East,86,0.0,0.0,63,0.00,,,0.00,Wunderground v.1.15,2013-06-20 04:20:00,
2013-06-19 23:25:00,72.0,58.7,30.11,East,80,0.0,0.0,63,0.00,,,0.00,Wunderground v.1.15,2013-06-20 04:25:00,
2013-06-19 23:30:00,71.9,58.6,30.11,East,80,0.0,0.0,63,0.00,,,0.00,Wunderground v.1.15,2013-06-20 04:30:00,
2013-06-19 23:40:00,71.5,58.2,30.11,East,80,0.0,0.0,63,0.00,,,0.00,Wunderground v.1.15,2013-06-20 04:40:00,
2013-06-19 23:50:00,71.2,58.4,30.11,East,80,0.0,0.0,64,0.00,,,0.00,Wunderground v.1.15,2013-06-20 04:50:00,
2013-06-19 23:55:00,71.0,58.6,30.11,East,80,0.0,0.0,65,0.00,,,0.00,Wunderground v.1.15,2013-06-20 04:55:00,